sensor_id;sensor_type;location;lat;lon;timestamp;pressure;altitude;pressure_sealevel;temperature;humidity
55171;BME280;41060;47.510;8.680;2022-10-31T00:00:33;97619.72;;;12.08;58.89
55171;BME280;41060;47.510;8.680;2022-10-31T00:03:00;97616.72;;;12.02;59.65
55171;BME280;41060;47.510;8.680;2022-10-31T00:05:26;97618.50;;;12.12;59.58
55171;BME280;41060;47.510;8.680;2022-10-31T00:07:55;97612.38;;;12.23;58.94
55171;BME280;41060;47.510;8.680;2022-10-31T00:10:22;97608.78;;;12.24;58.92
55171;BME280;41060;47.510;8.680;2022-10-31T00:12:48;97604.28;;;12.36;58.61
55171;BME280;41060;47.510;8.680;2022-10-31T00:15:15;97612.72;;;12.41;58.40
55171;BME280;41060;47.510;8.680;2022-10-31T00:17:42;97599.19;;;12.33;58.38
55171;BME280;41060;47.510;8.680;2022-10-31T00:20:11;97612.75;;;12.52;58.02
55171;BME280;41060;47.510;8.680;2022-10-31T00:22:38;97610.19;;;12.28;58.01
55171;BME280;41060;47.510;8.680;2022-10-31T00:25:07;97616.13;;;12.20;58.16
55171;BME280;41060;47.510;8.680;2022-10-31T00:27:34;97611.53;;;12.22;58.78
55171;BME280;41060;47.510;8.680;2022-10-31T00:30:01;97611.75;;;12.19;58.03
55171;BME280;41060;47.510;8.680;2022-10-31T00:32:28;97611.38;;;11.91;58.52
55171;BME280;41060;47.510;8.680;2022-10-31T00:34:56;97611.78;;;11.73;58.99
55171;BME280;41060;47.510;8.680;2022-10-31T00:37:23;97610.56;;;11.66;59.67
55171;BME280;41060;47.510;8.680;2022-10-31T00:39:50;97611.38;;;11.56;59.47
55171;BME280;41060;47.510;8.680;2022-10-31T00:42:18;97615.47;;;11.48;60.31
55171;BME280;41060;47.510;8.680;2022-10-31T00:44:45;97611.97;;;11.48;61.76
55171;BME280;41060;47.510;8.680;2022-10-31T00:47:12;97614.31;;;11.64;60.76
55171;BME280;41060;47.510;8.680;2022-10-31T00:49:38;97614.88;;;11.56;59.14
55171;BME280;41060;47.510;8.680;2022-10-31T00:52:06;97617.19;;;11.61;58.69
55171;BME280;41060;47.510;8.680;2022-10-31T00:54:32;97614.78;;;11.69;58.90
55171;BME280;41060;47.510;8.680;2022-10-31T00:56:59;97616.84;;;11.65;59.58
55171;BME280;41060;47.510;8.680;2022-10-31T00:59:28;97610.28;;;11.58;59.09
55171;BME280;41060;47.510;8.680;2022-10-31T01:01:55;97594.44;;;11.34;59.23
55171;BME280;41060;47.510;8.680;2022-10-31T01:04:21;97611.00;;;11.49;59.18
55171;BME280;41060;47.510;8.680;2022-10-31T01:06:49;97615.34;;;11.50;59.24
55171;BME280;41060;47.510;8.680;2022-10-31T01:09:15;97618.97;;;11.49;58.95
55171;BME280;41060;47.510;8.680;2022-10-31T01:11:42;97618.00;;;11.50;59.33
55171;BME280;41060;47.510;8.680;2022-10-31T01:14:10;97579.59;;;11.32;58.94
55171;BME280;41060;47.510;8.680;2022-10-31T01:16:38;97602.69;;;11.42;58.75
55171;BME280;41060;47.510;8.680;2022-10-31T01:19:04;97609.44;;;11.46;59.05
55171;BME280;41060;47.510;8.680;2022-10-31T01:21:32;97617.00;;;11.40;59.26
55171;BME280;41060;47.510;8.680;2022-10-31T01:23:59;97610.75;;;11.41;58.83
55171;BME280;41060;47.510;8.680;2022-10-31T01:26:28;97611.97;;;11.48;58.68
55171;BME280;41060;47.510;8.680;2022-10-31T01:28:58;97616.06;;;11.52;58.69
55171;BME280;41060;47.510;8.680;2022-10-31T01:31:27;97613.69;;;11.60;57.86
55171;BME280;41060;47.510;8.680;2022-10-31T01:33:56;97608.09;;;11.52;58.38
55171;BME280;41060;47.510;8.680;2022-10-31T01:36:25;97604.84;;;11.48;58.19
55171;BME280;41060;47.510;8.680;2022-10-31T01:38:54;97604.22;;;11.45;58.16
55171;BME280;41060;47.510;8.680;2022-10-31T01:41:23;97602.69;;;11.42;58.33
55171;BME280;41060;47.510;8.680;2022-10-31T01:43:52;97597.00;;;11.47;57.96
55171;BME280;41060;47.510;8.680;2022-10-31T01:46:22;97597.97;;;11.46;57.97
55171;BME280;41060;47.510;8.680;2022-10-31T01:48:52;97596.75;;;11.39;58.38
55171;BME280;41060;47.510;8.680;2022-10-31T01:51:28;97603.75;;;11.40;58.11
55171;BME280;41060;47.510;8.680;2022-10-31T01:54:00;97599.13;;;11.31;58.16
55171;BME280;41060;47.510;8.680;2022-10-31T01:56:28;97594.56;;;11.33;58.33
55171;BME280;41060;47.510;8.680;2022-10-31T01:58:56;97601.28;;;11.26;58.15
55171;BME280;41060;47.510;8.680;2022-10-31T02:01:26;97606.47;;;11.27;57.88
55171;BME280;41060;47.510;8.680;2022-10-31T02:03:56;97600.66;;;11.22;58.00
55171;BME280;41060;47.510;8.680;2022-10-31T02:06:32;97603.03;;;11.14;57.82
55171;BME280;41060;47.510;8.680;2022-10-31T02:09:03;97597.00;;;11.12;58.31
55171;BME280;41060;47.510;8.680;2022-10-31T02:11:31;97592.41;;;11.14;58.36
55171;BME280;41060;47.510;8.680;2022-10-31T02:14:00;97600.13;;;11.06;58.74
55171;BME280;41060;47.510;8.680;2022-10-31T02:16:28;97590.19;;;10.97;58.33
55171;BME280;41060;47.510;8.680;2022-10-31T02:18:55;97590.50;;;10.92;58.89
55171;BME280;41060;47.510;8.680;2022-10-31T02:21:28;97586.41;;;10.88;59.20
55171;BME280;41060;47.510;8.680;2022-10-31T02:27:11;97589.78;;;10.90;59.34
55171;BME280;41060;47.510;8.680;2022-10-31T02:30:02;97579.63;;;10.84;59.21
55171;BME280;41060;47.510;8.680;2022-10-31T02:32:39;97582.81;;;10.89;58.98
55171;BME280;41060;47.510;8.680;2022-10-31T02:35:16;97576.25;;;10.82;58.75
55171;BME280;41060;47.510;8.680;2022-10-31T02:37:51;97581.22;;;10.87;58.70
55171;BME280;41060;47.510;8.680;2022-10-31T02:40:25;97575.72;;;10.77;58.64
55171;BME280;41060;47.510;8.680;2022-10-31T02:42:59;97575.69;;;10.66;59.00
55171;BME280;41060;47.510;8.680;2022-10-31T02:45:32;97579.59;;;10.60;59.42
55171;BME280;41060;47.510;8.680;2022-10-31T02:48:08;97582.44;;;10.57;59.36
55171;BME280;41060;47.510;8.680;2022-10-31T02:50:40;97582.78;;;10.65;59.37
55171;BME280;41060;47.510;8.680;2022-10-31T02:53:07;97576.72;;;10.76;58.81
55171;BME280;41060;47.510;8.680;2022-10-31T02:55:55;97583.41;;;10.93;58.12
55171;BME280;41060;47.510;8.680;2022-10-31T02:58:26;97570.06;;;10.94;58.23
55171;BME280;41060;47.510;8.680;2022-10-31T03:01:08;97578.78;;;11.07;58.24
55171;BME280;41060;47.510;8.680;2022-10-31T03:03:46;97579.47;;;10.98;58.00
55171;BME280;41060;47.510;8.680;2022-10-31T03:06:17;97579.31;;;10.89;58.19
55171;BME280;41060;47.510;8.680;2022-10-31T03:08:54;97572.91;;;10.91;58.14
55171;BME280;41060;47.510;8.680;2022-10-31T03:11:24;97581.88;;;11.01;58.47
55171;BME280;41060;47.510;8.680;2022-10-31T03:13:59;97584.94;;;11.08;58.45
55171;BME280;41060;47.510;8.680;2022-10-31T03:16:31;97575.25;;;10.96;58.10
55171;BME280;41060;47.510;8.680;2022-10-31T03:19:07;97573.75;;;10.92;57.91
55171;BME280;41060;47.510;8.680;2022-10-31T03:21:37;97572.31;;;10.88;58.45
55171;BME280;41060;47.510;8.680;2022-10-31T03:24:08;97566.72;;;10.80;58.65
55171;BME280;41060;47.510;8.680;2022-10-31T03:26:38;97564.94;;;10.80;58.68
55171;BME280;41060;47.510;8.680;2022-10-31T03:29:10;97568.47;;;10.92;58.51
55171;BME280;41060;47.510;8.680;2022-10-31T03:31:44;97569.84;;;10.97;59.05
55171;BME280;41060;47.510;8.680;2022-10-31T03:34:16;97563.34;;;11.01;59.92
55171;BME280;41060;47.510;8.680;2022-10-31T03:36:45;97570.63;;;11.10;60.35
55171;BME280;41060;47.510;8.680;2022-10-31T03:39:18;97565.81;;;11.16;60.50
55171;BME280;41060;47.510;8.680;2022-10-31T03:41:49;97566.19;;;11.22;60.47
55171;BME280;41060;47.510;8.680;2022-10-31T03:44:21;97562.47;;;11.25;60.55
55171;BME280;41060;47.510;8.680;2022-10-31T03:46:50;97568.72;;;11.24;60.75
55171;BME280;41060;47.510;8.680;2022-10-31T03:49:18;97571.16;;;11.27;60.90
55171;BME280;41060;47.510;8.680;2022-10-31T03:51:50;97572.72;;;11.29;60.80
55171;BME280;41060;47.510;8.680;2022-10-31T03:54:25;97566.72;;;11.27;61.00
55171;BME280;41060;47.510;8.680;2022-10-31T03:56:57;97561.50;;;11.26;61.18
55171;BME280;41060;47.510;8.680;2022-10-31T03:59:26;97556.94;;;11.28;61.37
55171;BME280;41060;47.510;8.680;2022-10-31T04:01:57;97555.53;;;11.35;61.03
55171;BME280;41060;47.510;8.680;2022-10-31T04:04:29;97549.00;;;11.39;61.12
55171;BME280;41060;47.510;8.680;2022-10-31T04:06:58;97556.69;;;11.20;61.56
55171;BME280;41060;47.510;8.680;2022-10-31T04:09:27;97556.91;;;11.17;61.70
55171;BME280;41060;47.510;8.680;2022-10-31T04:12:00;97557.47;;;11.09;61.89
55171;BME280;41060;47.510;8.680;2022-10-31T04:14:30;97560.59;;;11.14;61.89
55171;BME280;41060;47.510;8.680;2022-10-31T04:16:58;97554.13;;;11.18;61.68
55171;BME280;41060;47.510;8.680;2022-10-31T04:19:27;97550.47;;;11.08;61.99
55171;BME280;41060;47.510;8.680;2022-10-31T04:21:54;97553.97;;;10.85;62.34
55171;BME280;41060;47.510;8.680;2022-10-31T04:24:22;97558.28;;;10.75;62.50
55171;BME280;41060;47.510;8.680;2022-10-31T04:26:48;97560.59;;;10.79;62.63
55171;BME280;41060;47.510;8.680;2022-10-31T04:29:15;97549.94;;;10.68;62.70
55171;BME280;41060;47.510;8.680;2022-10-31T04:31:42;97544.13;;;10.63;63.37
55171;BME280;41060;47.510;8.680;2022-10-31T04:34:09;97554.50;;;10.66;63.20
55171;BME280;41060;47.510;8.680;2022-10-31T04:36:37;97558.84;;;10.67;63.67
55171;BME280;41060;47.510;8.680;2022-10-31T04:39:04;97548.63;;;10.74;63.81
55171;BME280;41060;47.510;8.680;2022-10-31T04:41:31;97559.53;;;10.82;63.43
55171;BME280;41060;47.510;8.680;2022-10-31T04:43:58;97562.31;;;10.91;62.92
55171;BME280;41060;47.510;8.680;2022-10-31T04:46:25;97552.47;;;10.93;62.84
55171;BME280;41060;47.510;8.680;2022-10-31T04:48:52;97559.00;;;11.00;62.51
55171;BME280;41060;47.510;8.680;2022-10-31T04:51:18;97549.63;;;11.07;62.09
55171;BME280;41060;47.510;8.680;2022-10-31T04:53:47;97545.34;;;11.18;62.00
55171;BME280;41060;47.510;8.680;2022-10-31T04:56:14;97540.41;;;11.24;61.63
55171;BME280;41060;47.510;8.680;2022-10-31T04:58:41;97545.81;;;11.23;61.75
55171;BME280;41060;47.510;8.680;2022-10-31T05:01:10;97540.41;;;11.24;61.81
55171;BME280;41060;47.510;8.680;2022-10-31T05:03:37;97544.66;;;11.27;61.75
55171;BME280;41060;47.510;8.680;2022-10-31T05:06:05;97531.16;;;11.30;61.97
55171;BME280;41060;47.510;8.680;2022-10-31T05:08:35;97530.78;;;11.23;61.79
55171;BME280;41060;47.510;8.680;2022-10-31T05:11:03;97535.34;;;11.21;62.09
55171;BME280;41060;47.510;8.680;2022-10-31T05:13:31;97539.47;;;11.25;61.92
55171;BME280;41060;47.510;8.680;2022-10-31T05:15:58;97527.16;;;11.24;61.99
55171;BME280;41060;47.510;8.680;2022-10-31T05:18:25;97526.31;;;11.24;61.77
55171;BME280;41060;47.510;8.680;2022-10-31T05:20:51;97517.41;;;11.25;62.97
55171;BME280;41060;47.510;8.680;2022-10-31T05:23:19;97520.44;;;11.31;63.29
55171;BME280;41060;47.510;8.680;2022-10-31T05:25:45;97529.50;;;11.40;63.04
55171;BME280;41060;47.510;8.680;2022-10-31T05:28:13;97523.25;;;11.41;62.15
55171;BME280;41060;47.510;8.680;2022-10-31T05:30:40;97520.97;;;11.47;61.60
55171;BME280;41060;47.510;8.680;2022-10-31T05:33:07;97510.09;;;11.50;60.85
55171;BME280;41060;47.510;8.680;2022-10-31T05:35:34;97516.41;;;11.49;60.30
55171;BME280;41060;47.510;8.680;2022-10-31T05:38:01;97511.69;;;11.42;60.52
55171;BME280;41060;47.510;8.680;2022-10-31T05:40:28;97513.38;;;11.43;60.55
55171;BME280;41060;47.510;8.680;2022-10-31T05:42:55;97510.72;;;11.43;60.99
55171;BME280;41060;47.510;8.680;2022-10-31T05:45:25;97501.50;;;11.36;61.11
55171;BME280;41060;47.510;8.680;2022-10-31T05:47:57;97510.31;;;11.36;61.21
55171;BME280;41060;47.510;8.680;2022-10-31T05:50:26;97518.63;;;11.32;61.21
55171;BME280;41060;47.510;8.680;2022-10-31T05:52:57;97516.59;;;11.35;61.46
55171;BME280;41060;47.510;8.680;2022-10-31T05:55:25;97517.19;;;11.39;61.58
55171;BME280;41060;47.510;8.680;2022-10-31T05:57:52;97458.56;;;11.08;61.27
55171;BME280;41060;47.510;8.680;2022-10-31T06:00:22;97509.94;;;11.30;61.71
55171;BME280;41060;47.510;8.680;2022-10-31T06:02:57;97512.91;;;11.14;62.06
55171;BME280;41060;47.510;8.680;2022-10-31T06:05:27;97505.72;;;10.92;62.68
55171;BME280;41060;47.510;8.680;2022-10-31T06:07:54;97506.09;;;10.88;63.45
55171;BME280;41060;47.510;8.680;2022-10-31T06:10:21;97502.59;;;10.63;63.95
55171;BME280;41060;47.510;8.680;2022-10-31T06:12:48;97501.59;;;10.41;64.43
55171;BME280;41060;47.510;8.680;2022-10-31T06:15:15;97508.75;;;10.27;64.90
55171;BME280;41060;47.510;8.680;2022-10-31T06:17:42;97509.38;;;10.31;65.33
55171;BME280;41060;47.510;8.680;2022-10-31T06:20:11;97509.22;;;10.45;64.39
55171;BME280;41060;47.510;8.680;2022-10-31T06:22:38;97508.19;;;10.59;63.60
55171;BME280;41060;47.510;8.680;2022-10-31T06:25:05;97514.94;;;10.76;63.26
55171;BME280;41060;47.510;8.680;2022-10-31T06:27:32;97514.97;;;10.87;62.89
55171;BME280;41060;47.510;8.680;2022-10-31T06:29:59;97505.59;;;10.83;62.48
55171;BME280;41060;47.510;8.680;2022-10-31T06:32:26;97507.22;;;10.73;62.93
55171;BME280;41060;47.510;8.680;2022-10-31T06:34:52;97513.22;;;10.51;63.86
55171;BME280;41060;47.510;8.680;2022-10-31T06:37:21;97500.88;;;10.39;64.55
55171;BME280;41060;47.510;8.680;2022-10-31T06:39:48;97514.91;;;10.52;64.25
55171;BME280;41060;47.510;8.680;2022-10-31T06:42:15;97505.63;;;10.70;63.52
55171;BME280;41060;47.510;8.680;2022-10-31T06:44:42;97508.25;;;10.83;63.21
55171;BME280;41060;47.510;8.680;2022-10-31T06:47:09;97512.34;;;10.87;63.12
55171;BME280;41060;47.510;8.680;2022-10-31T06:49:35;97509.22;;;10.93;62.96
55171;BME280;41060;47.510;8.680;2022-10-31T06:52:03;97494.53;;;10.89;62.49
55171;BME280;41060;47.510;8.680;2022-10-31T06:54:32;97500.88;;;10.86;63.36
55171;BME280;41060;47.510;8.680;2022-10-31T06:56:59;97505.97;;;10.65;63.63
55171;BME280;41060;47.510;8.680;2022-10-31T06:59:26;97509.81;;;10.49;64.11
55171;BME280;41060;47.510;8.680;2022-10-31T07:01:53;97515.47;;;10.44;63.92
55171;BME280;41060;47.510;8.680;2022-10-31T07:04:19;97523.56;;;10.30;64.13
55171;BME280;41060;47.510;8.680;2022-10-31T07:06:47;97528.34;;;10.12;65.16
55171;BME280;41060;47.510;8.680;2022-10-31T07:09:13;97519.13;;;10.18;65.03
55171;BME280;41060;47.510;8.680;2022-10-31T07:11:41;97521.75;;;10.30;65.01
55171;BME280;41060;47.510;8.680;2022-10-31T07:14:09;97517.13;;;10.21;65.08
55171;BME280;41060;47.510;8.680;2022-10-31T07:16:35;97517.03;;;10.10;65.45
55171;BME280;41060;47.510;8.680;2022-10-31T07:19:02;97531.31;;;10.20;65.43
55171;BME280;41060;47.510;8.680;2022-10-31T07:21:29;97536.19;;;10.14;65.04
55171;BME280;41060;47.510;8.680;2022-10-31T07:23:56;97533.47;;;9.90;65.81
55171;BME280;41060;47.510;8.680;2022-10-31T07:26:23;97540.03;;;9.97;65.98
55171;BME280;41060;47.510;8.680;2022-10-31T07:28:51;97542.94;;;10.18;65.52
55171;BME280;41060;47.510;8.680;2022-10-31T07:31:18;97541.13;;;10.31;65.11
55171;BME280;41060;47.510;8.680;2022-10-31T07:33:47;97545.19;;;10.48;65.93
55171;BME280;41060;47.510;8.680;2022-10-31T07:36:14;97545.16;;;10.60;64.08
55171;BME280;41060;47.510;8.680;2022-10-31T07:38:41;97548.13;;;10.56;63.50
55171;BME280;41060;47.510;8.680;2022-10-31T07:41:08;97548.25;;;10.54;63.37
55171;BME280;41060;47.510;8.680;2022-10-31T07:43:35;97542.69;;;10.46;63.32
55171;BME280;41060;47.510;8.680;2022-10-31T07:46:04;97539.19;;;10.46;63.94
55171;BME280;41060;47.510;8.680;2022-10-31T07:48:30;97533.44;;;10.52;63.52
55171;BME280;41060;47.510;8.680;2022-10-31T07:50:58;97530.94;;;10.38;64.57
55171;BME280;41060;47.510;8.680;2022-10-31T07:53:24;97534.03;;;10.31;65.10
55171;BME280;41060;47.510;8.680;2022-10-31T07:55:51;97534.25;;;10.28;64.57
55171;BME280;41060;47.510;8.680;2022-10-31T07:58:18;97533.06;;;10.32;64.74
55171;BME280;41060;47.510;8.680;2022-10-31T08:00:46;97534.16;;;10.30;65.02
55171;BME280;41060;47.510;8.680;2022-10-31T08:03:16;97525.25;;;10.31;64.96
55171;BME280;41060;47.510;8.680;2022-10-31T08:05:44;97529.31;;;10.24;65.26
55171;BME280;41060;47.510;8.680;2022-10-31T08:08:11;97541.06;;;10.07;65.59
55171;BME280;41060;47.510;8.680;2022-10-31T08:10:39;97536.44;;;10.34;65.64
55171;BME280;41060;47.510;8.680;2022-10-31T08:13:08;97546.03;;;10.48;64.81
55171;BME280;41060;47.510;8.680;2022-10-31T08:15:35;97545.44;;;10.45;64.98
55171;BME280;41060;47.510;8.680;2022-10-31T08:18:05;97527.59;;;10.59;64.28
55171;BME280;41060;47.510;8.680;2022-10-31T08:20:33;97549.59;;;10.96;63.64
55171;BME280;41060;47.510;8.680;2022-10-31T08:23:01;97543.25;;;11.10;62.98
55171;BME280;41060;47.510;8.680;2022-10-31T08:25:31;97543.44;;;11.20;62.69
55171;BME280;41060;47.510;8.680;2022-10-31T08:27:58;97531.78;;;11.33;62.51
55171;BME280;41060;47.510;8.680;2022-10-31T08:30:27;97523.72;;;11.46;62.16
55171;BME280;41060;47.510;8.680;2022-10-31T08:32:58;97526.75;;;11.53;61.65
55171;BME280;41060;47.510;8.680;2022-10-31T08:35:26;97517.34;;;11.60;61.39
55171;BME280;41060;47.510;8.680;2022-10-31T08:37:54;97530.28;;;11.64;61.65
55171;BME280;41060;47.510;8.680;2022-10-31T08:40:21;97530.38;;;11.74;61.73
55171;BME280;41060;47.510;8.680;2022-10-31T08:42:56;97525.44;;;11.80;61.50
55171;BME280;41060;47.510;8.680;2022-10-31T08:45:23;97536.78;;;11.82;61.58
55171;BME280;41060;47.510;8.680;2022-10-31T08:47:51;97533.72;;;11.42;62.34
55171;BME280;41060;47.510;8.680;2022-10-31T08:50:18;97528.22;;;11.22;63.58
55171;BME280;41060;47.510;8.680;2022-10-31T08:52:45;97519.38;;;11.34;62.87
55171;BME280;41060;47.510;8.680;2022-10-31T08:55:13;97523.59;;;11.47;62.76
55171;BME280;41060;47.510;8.680;2022-10-31T08:57:40;97513.25;;;11.56;62.33
55171;BME280;41060;47.510;8.680;2022-10-31T09:00:08;97487.47;;;11.69;67.66
55171;BME280;41060;47.510;8.680;2022-10-31T09:02:35;97516.31;;;11.96;61.78
55171;BME280;41060;47.510;8.680;2022-10-31T09:05:04;97512.19;;;11.80;62.16
55171;BME280;41060;47.510;8.680;2022-10-31T09:07:31;97516.78;;;11.78;61.89
55171;BME280;41060;47.510;8.680;2022-10-31T09:09:58;97519.69;;;11.98;61.83
55171;BME280;41060;47.510;8.680;2022-10-31T09:12:26;97500.13;;;11.87;62.04
55171;BME280;41060;47.510;8.680;2022-10-31T09:14:52;97517.97;;;11.63;63.57
55171;BME280;41060;47.510;8.680;2022-10-31T09:17:20;97524.56;;;11.46;66.69
55171;BME280;41060;47.510;8.680;2022-10-31T09:19:46;97526.53;;;11.67;69.20
55171;BME280;41060;47.510;8.680;2022-10-31T09:22:15;97518.59;;;12.11;64.63
55171;BME280;41060;47.510;8.680;2022-10-31T09:24:45;97529.28;;;12.54;67.20
55171;BME280;41060;47.510;8.680;2022-10-31T09:27:12;97520.69;;;12.62;65.90
55171;BME280;41060;47.510;8.680;2022-10-31T09:29:40;97519.75;;;12.95;66.52
55171;BME280;41060;47.510;8.680;2022-10-31T09:32:08;97505.31;;;13.40;64.47
55171;BME280;41060;47.510;8.680;2022-10-31T09:34:34;97502.44;;;13.53;63.58
55171;BME280;41060;47.510;8.680;2022-10-31T09:37:01;97502.47;;;13.84;63.37
55171;BME280;41060;47.510;8.680;2022-10-31T09:39:28;97493.41;;;13.65;60.41
55171;BME280;41060;47.510;8.680;2022-10-31T09:42:14;97492.94;;;13.60;62.54
55171;BME280;41060;47.510;8.680;2022-10-31T09:44:50;97492.03;;;13.71;59.57
55171;BME280;41060;47.510;8.680;2022-10-31T09:47:26;97499.38;;;13.88;59.54
55171;BME280;41060;47.510;8.680;2022-10-31T09:50:11;97490.28;;;13.60;59.14
55171;BME280;41060;47.510;8.680;2022-10-31T09:52:43;97488.91;;;13.35;60.90
55171;BME280;41060;47.510;8.680;2022-10-31T09:55:16;97486.19;;;13.77;61.66
55171;BME280;41060;47.510;8.680;2022-10-31T09:57:44;97444.00;;;13.42;59.22
55171;BME280;41060;47.510;8.680;2022-10-31T10:00:17;97481.75;;;13.87;59.95
55171;BME280;41060;47.510;8.680;2022-10-31T10:02:48;97487.19;;;13.55;60.52
55171;BME280;41060;47.510;8.680;2022-10-31T10:05:19;97479.59;;;13.51;60.68
55171;BME280;41060;47.510;8.680;2022-10-31T10:07:53;97484.31;;;13.68;61.02
55171;BME280;41060;47.510;8.680;2022-10-31T10:10:36;97444.44;;;13.47;61.90
55171;BME280;41060;47.510;8.680;2022-10-31T10:13:16;97467.06;;;13.93;61.16
55171;BME280;41060;47.510;8.680;2022-10-31T10:16:01;97464.69;;;13.99;61.19
55171;BME280;41060;47.510;8.680;2022-10-31T10:18:41;97460.63;;;14.35;60.87
55171;BME280;41060;47.510;8.680;2022-10-31T10:21:19;97451.25;;;14.50;59.34
55171;BME280;41060;47.510;8.680;2022-10-31T10:24:00;97451.63;;;14.27;60.05
55171;BME280;41060;47.510;8.680;2022-10-31T10:26:35;97444.50;;;14.37;59.58
55171;BME280;41060;47.510;8.680;2022-10-31T10:29:12;97451.63;;;14.17;61.07
55171;BME280;41060;47.510;8.680;2022-10-31T10:31:46;97448.13;;;14.16;60.74
55171;BME280;41060;47.510;8.680;2022-10-31T10:34:19;97450.31;;;14.11;60.78
55171;BME280;41060;47.510;8.680;2022-10-31T10:36:50;97432.66;;;14.10;60.56
55171;BME280;41060;47.510;8.680;2022-10-31T10:39:25;97425.38;;;14.12;60.53
55171;BME280;41060;47.510;8.680;2022-10-31T10:41:55;97440.88;;;14.47;60.56
55171;BME280;41060;47.510;8.680;2022-10-31T10:44:53;97448.63;;;14.60;59.95
55171;BME280;41060;47.510;8.680;2022-10-31T10:47:41;97448.47;;;14.71;59.87
55171;BME280;41060;47.510;8.680;2022-10-31T10:50:13;97445.13;;;14.98;59.01
55171;BME280;41060;47.510;8.680;2022-10-31T10:52:50;97440.91;;;14.76;59.22
55171;BME280;41060;47.510;8.680;2022-10-31T10:55:30;97433.88;;;15.04;59.13
55171;BME280;41060;47.510;8.680;2022-10-31T10:58:00;97438.22;;;15.05;58.28
55171;BME280;41060;47.510;8.680;2022-10-31T11:00:30;97431.91;;;14.87;58.64
55171;BME280;41060;47.510;8.680;2022-10-31T11:02:58;97433.59;;;14.98;58.60
55171;BME280;41060;47.510;8.680;2022-10-31T11:05:30;97428.53;;;14.85;58.96
55171;BME280;41060;47.510;8.680;2022-10-31T11:08:00;97434.03;;;14.83;59.20
55171;BME280;41060;47.510;8.680;2022-10-31T11:10:26;97437.41;;;14.66;59.50
55171;BME280;41060;47.510;8.680;2022-10-31T11:13:06;97414.09;;;14.49;59.79
55171;BME280;41060;47.510;8.680;2022-10-31T11:15:37;97428.25;;;14.49;60.22
55171;BME280;41060;47.510;8.680;2022-10-31T11:18:19;97423.78;;;14.50;59.60
55171;BME280;41060;47.510;8.680;2022-10-31T11:20:52;97431.34;;;14.54;59.97
55171;BME280;41060;47.510;8.680;2022-10-31T11:23:20;97424.88;;;14.28;60.71
55171;BME280;41060;47.510;8.680;2022-10-31T11:25:51;97412.81;;;14.24;60.47
55171;BME280;41060;47.510;8.680;2022-10-31T11:28:18;97420.25;;;14.49;60.23
55171;BME280;41060;47.510;8.680;2022-10-31T11:30:47;97417.59;;;14.30;60.73
55171;BME280;41060;47.510;8.680;2022-10-31T11:33:22;97408.63;;;14.31;60.69
55171;BME280;41060;47.510;8.680;2022-10-31T11:35:52;97405.84;;;14.52;60.44
55171;BME280;41060;47.510;8.680;2022-10-31T11:38:22;97382.81;;;14.51;59.62
55171;BME280;41060;47.510;8.680;2022-10-31T11:40:52;97359.13;;;14.57;59.50
55171;BME280;41060;47.510;8.680;2022-10-31T11:43:21;97370.06;;;14.64;59.20
55171;BME280;41060;47.510;8.680;2022-10-31T11:45:48;97407.94;;;14.87;59.07
55171;BME280;41060;47.510;8.680;2022-10-31T11:48:18;97389.97;;;14.89;58.27
55171;BME280;41060;47.510;8.680;2022-10-31T11:50:49;97401.88;;;14.94;58.53
55171;BME280;41060;47.510;8.680;2022-10-31T11:53:18;97405.53;;;15.03;58.72
55171;BME280;41060;47.510;8.680;2022-10-31T11:55:46;97402.91;;;14.84;59.97
55171;BME280;41060;47.510;8.680;2022-10-31T11:58:22;97373.97;;;14.79;60.29
55171;BME280;41060;47.510;8.680;2022-10-31T12:00:51;97379.13;;;15.10;59.58
55171;BME280;41060;47.510;8.680;2022-10-31T12:03:40;97374.66;;;15.20;59.77
55171;BME280;41060;47.510;8.680;2022-10-31T12:06:12;97366.91;;;15.07;60.52
55171;BME280;41060;47.510;8.680;2022-10-31T12:08:41;97355.31;;;14.89;60.56
55171;BME280;41060;47.510;8.680;2022-10-31T12:11:27;97362.28;;;15.00;60.84
55171;BME280;41060;47.510;8.680;2022-10-31T12:14:08;97354.44;;;15.17;60.30
55171;BME280;41060;47.510;8.680;2022-10-31T12:16:46;97356.97;;;15.19;60.25
55171;BME280;41060;47.510;8.680;2022-10-31T12:19:24;97348.91;;;15.28;60.54
55171;BME280;41060;47.510;8.680;2022-10-31T12:22:02;97349.25;;;15.53;60.39
55171;BME280;41060;47.510;8.680;2022-10-31T12:24:48;97340.16;;;15.73;59.10
55171;BME280;41060;47.510;8.680;2022-10-31T12:27:27;97340.47;;;15.88;58.82
55171;BME280;41060;47.510;8.680;2022-10-31T12:30:10;97329.38;;;15.92;58.40
55171;BME280;41060;47.510;8.680;2022-10-31T12:32:49;97326.38;;;16.23;58.76
55171;BME280;41060;47.510;8.680;2022-10-31T12:35:29;97334.25;;;16.60;57.98
55171;BME280;41060;47.510;8.680;2022-10-31T12:38:13;97321.94;;;16.93;56.76
55171;BME280;41060;47.510;8.680;2022-10-31T12:40:54;97322.09;;;17.35;55.87
55171;BME280;41060;47.510;8.680;2022-10-31T12:43:35;97307.41;;;17.47;55.11
55171;BME280;41060;47.510;8.680;2022-10-31T12:46:07;97305.69;;;17.38;54.86
55171;BME280;41060;47.510;8.680;2022-10-31T12:48:59;97296.72;;;17.47;54.67
55171;BME280;41060;47.510;8.680;2022-10-31T12:51:40;97283.44;;;17.71;54.03
55171;BME280;41060;47.510;8.680;2022-10-31T12:54:24;97267.63;;;18.10;53.66
55171;BME280;41060;47.510;8.680;2022-10-31T12:57:02;97260.31;;;18.36;53.63
55171;BME280;41060;47.510;8.680;2022-10-31T12:59:34;97263.16;;;18.59;53.25
55171;BME280;41060;47.510;8.680;2022-10-31T13:02:12;97267.84;;;18.82;53.16
55171;BME280;41060;47.510;8.680;2022-10-31T13:04:44;97262.63;;;18.96;52.85
55171;BME280;41060;47.510;8.680;2022-10-31T13:07:19;97253.03;;;19.10;52.33
55171;BME280;41060;47.510;8.680;2022-10-31T13:09:54;97250.00;;;19.21;52.06
55171;BME280;41060;47.510;8.680;2022-10-31T13:12:22;97247.22;;;18.98;52.36
55171;BME280;41060;47.510;8.680;2022-10-31T13:14:51;97211.19;;;18.76;52.79
55171;BME280;41060;47.510;8.680;2022-10-31T13:17:24;97234.06;;;19.11;52.31
55171;BME280;41060;47.510;8.680;2022-10-31T13:20:11;97231.94;;;18.99;52.66